sensor_id;sensor_type;location;lat;lon;timestamp;P1;durP1;ratioP1;P2;durP2;ratioP2
78079;SDS011;67298;51.322;5.958;2023-03-14T00:00:31;5.0;;;1.0;;
78079;SDS011;67298;51.322;5.958;2023-03-14T00:05:11;2.7;;;0.7;;
78079;SDS011;67298;51.322;5.958;2023-03-14T00:09:51;1.5;;;0.6;;
78079;SDS011;67298;51.322;5.958;2023-03-14T00:14:31;3.9;;;1.0;;
78079;SDS011;67298;51.322;5.958;2023-03-14T00:19:11;7.0;;;2.4;;
78079;SDS011;67298;51.322;5.958;2023-03-14T00:23:51;4.1;;;1.7;;
78079;SDS011;67298;51.322;5.958;2023-03-14T00:28:31;5.3;;;1.2;;
78079;SDS011;67298;51.322;5.958;2023-03-14T00:33:11;6.6;;;1.6;;
78079;SDS011;67298;51.322;5.958;2023-03-14T00:37:51;3.2;;;1.1;;
78079;SDS011;67298;51.322;5.958;2023-03-14T00:42:31;5.5;;;1.8;;
78079;SDS011;67298;51.322;5.958;2023-03-14T00:47:11;2.0;;;1.9;;
78079;SDS011;67298;51.322;5.958;2023-03-14T00:51:51;4.2;;;1.2;;
78079;SDS011;67298;51.322;5.958;2023-03-14T00:56:31;6.5;;;0.9;;
78079;SDS011;67298;51.322;5.958;2023-03-14T01:01:11;4.6;;;1.0;;
78079;SDS011;67298;51.322;5.958;2023-03-14T01:05:51;3.1;;;1.2;;
78079;SDS011;67298;51.322;5.958;2023-03-14T01:10:34;0.9;;;0.9;;
78079;SDS011;67298;51.322;5.958;2023-03-14T01:15:14;2.1;;;1.0;;
78079;SDS011;67298;51.322;5.958;2023-03-14T01:19:54;4.4;;;1.0;;
78079;SDS011;67298;51.322;5.958;2023-03-14T01:24:34;7.6;;;1.3;;
78079;SDS011;67298;51.322;5.958;2023-03-14T01:29:14;4.6;;;1.2;;
78079;SDS011;67298;51.322;5.958;2023-03-14T01:33:54;2.4;;;1.0;;
78079;SDS011;67298;51.322;5.958;2023-03-14T01:38:34;2.4;;;1.0;;
78079;SDS011;67298;51.322;5.958;2023-03-14T01:43:15;3.4;;;1.3;;
78079;SDS011;67298;51.322;5.958;2023-03-14T01:47:54;4.9;;;1.1;;
78079;SDS011;67298;51.322;5.958;2023-03-14T01:52:35;3.6;;;1.2;;
78079;SDS011;67298;51.322;5.958;2023-03-14T01:57:14;2.9;;;1.0;;
78079;SDS011;67298;51.322;5.958;2023-03-14T02:01:54;3.5;;;1.1;;
78079;SDS011;67298;51.322;5.958;2023-03-14T02:06:34;1.5;;;0.8;;
78079;SDS011;67298;51.322;5.958;2023-03-14T02:11:14;7.1;;;1.2;;
78079;SDS011;67298;51.322;5.958;2023-03-14T02:15:55;8.1;;;1.6;;
78079;SDS011;67298;51.322;5.958;2023-03-14T02:20:36;2.9;;;1.2;;
78079;SDS011;67298;51.322;5.958;2023-03-14T02:25:16;3.7;;;1.2;;
78079;SDS011;67298;51.322;5.958;2023-03-14T02:29:56;8.1;;;1.2;;
78079;SDS011;67298;51.322;5.958;2023-03-14T02:34:36;1.6;;;0.9;;
78079;SDS011;67298;51.322;5.958;2023-03-14T02:39:16;5.6;;;1.4;;
78079;SDS011;67298;51.322;5.958;2023-03-14T02:43:56;4.0;;;1.2;;
78079;SDS011;67298;51.322;5.958;2023-03-14T02:48:36;1.0;;;0.9;;
78079;SDS011;67298;51.322;5.958;2023-03-14T02:53:19;4.2;;;1.2;;
78079;SDS011;67298;51.322;5.958;2023-03-14T02:57:59;3.7;;;1.3;;
78079;SDS011;67298;51.322;5.958;2023-03-14T03:02:38;5.8;;;1.7;;
78079;SDS011;67298;51.322;5.958;2023-03-14T03:07:20;4.3;;;1.3;;
78079;SDS011;67298;51.322;5.958;2023-03-14T03:12:04;7.7;;;1.6;;
78079;SDS011;67298;51.322;5.958;2023-03-14T03:16:45;5.5;;;1.6;;
78079;SDS011;67298;51.322;5.958;2023-03-14T03:21:25;3.1;;;1.2;;
78079;SDS011;67298;51.322;5.958;2023-03-14T03:26:11;1.8;;;0.6;;
78079;SDS011;67298;51.322;5.958;2023-03-14T03:30:54;5.9;;;1.2;;
78079;SDS011;67298;51.322;5.958;2023-03-14T03:35:33;2.7;;;1.1;;
78079;SDS011;67298;51.322;5.958;2023-03-14T03:40:15;3.9;;;1.0;;
78079;SDS011;67298;51.322;5.958;2023-03-14T03:44:55;3.5;;;1.3;;
78079;SDS011;67298;51.322;5.958;2023-03-14T03:50:02;2.6;;;0.9;;
78079;SDS011;67298;51.322;5.958;2023-03-14T03:54:42;4.2;;;1.0;;
78079;SDS011;67298;51.322;5.958;2023-03-14T03:59:22;6.9;;;1.0;;
78079;SDS011;67298;51.322;5.958;2023-03-14T04:04:02;5.4;;;1.0;;
78079;SDS011;67298;51.322;5.958;2023-03-14T04:08:42;5.2;;;1.0;;
78079;SDS011;67298;51.322;5.958;2023-03-14T04:13:22;2.3;;;1.5;;
78079;SDS011;67298;51.322;5.958;2023-03-14T04:18:02;3.8;;;1.4;;
78079;SDS011;67298;51.322;5.958;2023-03-14T04:22:42;2.1;;;0.7;;
78079;SDS011;67298;51.322;5.958;2023-03-14T04:27:22;3.7;;;1.2;;
78079;SDS011;67298;51.322;5.958;2023-03-14T04:32:02;4.5;;;1.3;;
78079;SDS011;67298;51.322;5.958;2023-03-14T04:36:42;3.9;;;0.8;;
78079;SDS011;67298;51.322;5.958;2023-03-14T04:41:22;4.3;;;1.0;;
78079;SDS011;67298;51.322;5.958;2023-03-14T04:46:02;2.3;;;0.7;;
78079;SDS011;67298;51.322;5.958;2023-03-14T04:50:42;2.6;;;0.8;;
78079;SDS011;67298;51.322;5.958;2023-03-14T04:55:22;5.4;;;1.3;;
78079;SDS011;67298;51.322;5.958;2023-03-14T05:00:02;5.0;;;1.1;;
78079;SDS011;67298;51.322;5.958;2023-03-14T05:04:44;5.3;;;1.3;;
78079;SDS011;67298;51.322;5.958;2023-03-14T05:09:24;1.4;;;0.7;;
78079;SDS011;67298;51.322;5.958;2023-03-14T05:14:03;5.0;;;1.4;;
78079;SDS011;67298;51.322;5.958;2023-03-14T05:18:43;3.3;;;1.0;;
78079;SDS011;67298;51.322;5.958;2023-03-14T05:23:23;4.7;;;1.4;;
78079;SDS011;67298;51.322;5.958;2023-03-14T05:28:03;1.8;;;0.8;;
78079;SDS011;67298;51.322;5.958;2023-03-14T05:32:43;4.4;;;1.6;;
78079;SDS011;67298;51.322;5.958;2023-03-14T05:37:23;1.8;;;0.7;;
78079;SDS011;67298;51.322;5.958;2023-03-14T05:42:03;2.9;;;0.9;;
78079;SDS011;67298;51.322;5.958;2023-03-14T05:46:43;3.3;;;1.4;;
78079;SDS011;67298;51.322;5.958;2023-03-14T05:51:23;1.1;;;0.6;;
78079;SDS011;67298;51.322;5.958;2023-03-14T05:56:03;2.3;;;0.8;;
78079;SDS011;67298;51.322;5.958;2023-03-14T06:00:43;2.3;;;1.0;;
78079;SDS011;67298;51.322;5.958;2023-03-14T06:05:23;1.5;;;0.6;;
78079;SDS011;67298;51.322;5.958;2023-03-14T06:10:03;4.0;;;1.5;;
78079;SDS011;67298;51.322;5.958;2023-03-14T06:14:43;1.6;;;1.1;;
78079;SDS011;67298;51.322;5.958;2023-03-14T06:19:23;2.8;;;1.0;;
78079;SDS011;67298;51.322;5.958;2023-03-14T06:24:03;2.6;;;1.2;;
78079;SDS011;67298;51.322;5.958;2023-03-14T06:28:43;0.4;;;0.4;;
78079;SDS011;67298;51.322;5.958;2023-03-14T06:33:23;3.4;;;0.7;;
78079;SDS011;67298;51.322;5.958;2023-03-14T06:38:03;1.9;;;1.1;;
78079;SDS011;67298;51.322;5.958;2023-03-14T06:42:43;4.3;;;1.3;;
78079;SDS011;67298;51.322;5.958;2023-03-14T06:47:22;2.4;;;0.8;;
78079;SDS011;67298;51.322;5.958;2023-03-14T06:52:02;1.1;;;0.6;;
78079;SDS011;67298;51.322;5.958;2023-03-14T06:56:42;3.8;;;1.0;;
78079;SDS011;67298;51.322;5.958;2023-03-14T07:01:22;3.8;;;1.1;;
78079;SDS011;67298;51.322;5.958;2023-03-14T07:06:02;5.9;;;1.0;;
78079;SDS011;67298;51.322;5.958;2023-03-14T07:10:42;6.4;;;1.5;;
78079;SDS011;67298;51.322;5.958;2023-03-14T07:15:22;2.6;;;0.9;;
78079;SDS011;67298;51.322;5.958;2023-03-14T07:20:02;3.5;;;1.0;;
78079;SDS011;67298;51.322;5.958;2023-03-14T07:24:43;4.1;;;1.0;;
78079;SDS011;67298;51.322;5.958;2023-03-14T07:29:23;4.7;;;1.0;;
78079;SDS011;67298;51.322;5.958;2023-03-14T07:34:03;2.7;;;0.9;;
78079;SDS011;67298;51.322;5.958;2023-03-14T07:38:43;5.6;;;1.1;;
78079;SDS011;67298;51.322;5.958;2023-03-14T07:43:23;3.3;;;1.1;;
78079;SDS011;67298;51.322;5.958;2023-03-14T07:48:02;4.3;;;1.3;;
78079;SDS011;67298;51.322;5.958;2023-03-14T07:52:42;3.9;;;0.9;;
78079;SDS011;67298;51.322;5.958;2023-03-14T07:57:22;3.3;;;0.9;;
78079;SDS011;67298;51.322;5.958;2023-03-14T08:02:02;2.7;;;1.1;;
78079;SDS011;67298;51.322;5.958;2023-03-14T08:06:43;0.6;;;0.5;;
78079;SDS011;67298;51.322;5.958;2023-03-14T08:11:23;5.0;;;1.0;;
78079;SDS011;67298;51.322;5.958;2023-03-14T08:16:03;3.6;;;1.1;;
78079;SDS011;67298;51.322;5.958;2023-03-14T08:20:43;5.3;;;1.2;;
78079;SDS011;67298;51.322;5.958;2023-03-14T08:25:23;2.6;;;1.1;;
78079;SDS011;67298;51.322;5.958;2023-03-14T08:30:03;2.1;;;0.6;;
78079;SDS011;67298;51.322;5.958;2023-03-14T08:34:43;3.7;;;1.2;;
78079;SDS011;67298;51.322;5.958;2023-03-14T08:39:23;3.7;;;1.3;;
78079;SDS011;67298;51.322;5.958;2023-03-14T08:44:03;0.2;;;0.2;;
78079;SDS011;67298;51.322;5.958;2023-03-14T08:48:43;5.0;;;1.1;;
78079;SDS011;67298;51.322;5.958;2023-03-14T08:53:23;6.4;;;1.8;;
78079;SDS011;67298;51.322;5.958;2023-03-14T08:58:03;4.1;;;1.5;;
78079;SDS011;67298;51.322;5.958;2023-03-14T09:02:43;4.1;;;1.4;;
78079;SDS011;67298;51.322;5.958;2023-03-14T09:07:23;2.6;;;1.1;;
78079;SDS011;67298;51.322;5.958;2023-03-14T09:12:03;5.4;;;1.5;;
78079;SDS011;67298;51.322;5.958;2023-03-14T09:16:43;4.5;;;1.4;;
78079;SDS011;67298;51.322;5.958;2023-03-14T09:21:23;4.3;;;1.4;;
78079;SDS011;67298;51.322;5.958;2023-03-14T09:26:03;4.5;;;1.2;;
78079;SDS011;67298;51.322;5.958;2023-03-14T09:30:43;2.1;;;0.8;;
78079;SDS011;67298;51.322;5.958;2023-03-14T09:35:23;3.2;;;1.2;;
78079;SDS011;67298;51.322;5.958;2023-03-14T09:40:03;3.0;;;1.7;;
78079;SDS011;67298;51.322;5.958;2023-03-14T09:44:43;11.1;;;1.2;;
78079;SDS011;67298;51.322;5.958;2023-03-14T09:49:23;4.9;;;1.2;;
78079;SDS011;67298;51.322;5.958;2023-03-14T09:54:03;2.3;;;1.2;;
78079;SDS011;67298;51.322;5.958;2023-03-14T09:58:44;4.3;;;1.3;;
78079;SDS011;67298;51.322;5.958;2023-03-14T10:03:24;5.0;;;1.3;;
78079;SDS011;67298;51.322;5.958;2023-03-14T10:08:03;2.0;;;1.2;;
78079;SDS011;67298;51.322;5.958;2023-03-14T10:12:43;3.5;;;1.3;;
78079;SDS011;67298;51.322;5.958;2023-03-14T10:17:23;3.4;;;1.4;;
78079;SDS011;67298;51.322;5.958;2023-03-14T10:22:03;3.8;;;1.5;;
78079;SDS011;67298;51.322;5.958;2023-03-14T10:26:43;3.9;;;1.3;;
78079;SDS011;67298;51.322;5.958;2023-03-14T10:31:23;1.2;;;1.1;;
78079;SDS011;67298;51.322;5.958;2023-03-14T10:36:03;2.5;;;1.1;;
78079;SDS011;67298;51.322;5.958;2023-03-14T10:40:43;4.7;;;1.4;;
78079;SDS011;67298;51.322;5.958;2023-03-14T10:45:23;3.9;;;1.2;;
78079;SDS011;67298;51.322;5.958;2023-03-14T10:50:05;6.1;;;1.7;;
78079;SDS011;67298;51.322;5.958;2023-03-14T10:54:46;5.1;;;1.2;;
78079;SDS011;67298;51.322;5.958;2023-03-14T10:59:28;4.4;;;1.6;;
78079;SDS011;67298;51.322;5.958;2023-03-14T11:04:08;4.6;;;1.4;;
78079;SDS011;67298;51.322;5.958;2023-03-14T11:08:50;3.0;;;1.7;;
78079;SDS011;67298;51.322;5.958;2023-03-14T11:13:30;3.5;;;1.4;;
78079;SDS011;67298;51.322;5.958;2023-03-14T11:18:19;6.4;;;1.8;;
78079;SDS011;67298;51.322;5.958;2023-03-14T11:23:01;0.7;;;0.7;;
78079;SDS011;67298;51.322;5.958;2023-03-14T11:27:52;3.7;;;1.6;;
78079;SDS011;67298;51.322;5.958;2023-03-14T11:32:32;3.2;;;1.6;;
78079;SDS011;67298;51.322;5.958;2023-03-14T11:37:18;3.1;;;1.8;;
78079;SDS011;67298;51.322;5.958;2023-03-14T11:41:59;3.5;;;1.6;;
78079;SDS011;67298;51.322;5.958;2023-03-14T11:46:45;2.6;;;1.2;;
78079;SDS011;67298;51.322;5.958;2023-03-14T11:51:29;5.3;;;2.0;;
78079;SDS011;67298;51.322;5.958;2023-03-14T11:56:09;5.2;;;1.6;;
78079;SDS011;67298;51.322;5.958;2023-03-14T12:00:50;6.3;;;1.8;;
78079;SDS011;67298;51.322;5.958;2023-03-14T12:05:39;5.0;;;2.0;;
78079;SDS011;67298;51.322;5.958;2023-03-14T12:10:22;4.7;;;1.5;;
78079;SDS011;67298;51.322;5.958;2023-03-14T12:15:04;4.3;;;1.4;;
78079;SDS011;67298;51.322;5.958;2023-03-14T12:19:47;4.3;;;1.7;;
78079;SDS011;67298;51.322;5.958;2023-03-14T12:24:36;2.9;;;2.8;;
78079;SDS011;67298;51.322;5.958;2023-03-14T12:29:22;3.0;;;1.7;;
78079;SDS011;67298;51.322;5.958;2023-03-14T12:34:05;5.7;;;1.5;;
78079;SDS011;67298;51.322;5.958;2023-03-14T12:38:48;6.5;;;1.9;;
78079;SDS011;67298;51.322;5.958;2023-03-14T12:43:29;4.8;;;1.9;;
78079;SDS011;67298;51.322;5.958;2023-03-14T12:48:11;3.3;;;1.7;;
78079;SDS011;67298;51.322;5.958;2023-03-14T12:52:57;5.4;;;2.1;;
78079;SDS011;67298;51.322;5.958;2023-03-14T12:57:41;6.6;;;1.9;;
78079;SDS011;67298;51.322;5.958;2023-03-14T13:02:23;5.3;;;2.1;;
78079;SDS011;67298;51.322;5.958;2023-03-14T13:07:07;3.1;;;1.5;;
78079;SDS011;67298;51.322;5.958;2023-03-14T13:11:50;4.2;;;1.6;;
78079;SDS011;67298;51.322;5.958;2023-03-14T13:16:31;5.8;;;2.0;;
78079;SDS011;67298;51.322;5.958;2023-03-14T13:21:11;9.7;;;2.2;;
78079;SDS011;67298;51.322;5.958;2023-03-14T13:25:52;3.4;;;1.3;;
78079;SDS011;67298;51.322;5.958;2023-03-14T13:30:45;5.5;;;2.0;;
78079;SDS011;67298;51.322;5.958;2023-03-14T13:35:25;5.9;;;1.8;;
78079;SDS011;67298;51.322;5.958;2023-03-14T13:40:07;6.4;;;1.9;;
78079;SDS011;67298;51.322;5.958;2023-03-14T13:44:50;5.1;;;2.0;;
78079;SDS011;67298;51.322;5.958;2023-03-14T13:49:46;1.9;;;1.6;;
78079;SDS011;67298;51.322;5.958;2023-03-14T13:54:26;4.3;;;2.4;;
78079;SDS011;67298;51.322;5.958;2023-03-14T13:59:13;8.9;;;2.0;;
78079;SDS011;67298;51.322;5.958;2023-03-14T14:04:02;0.7;;;0.7;;
78079;SDS011;67298;51.322;5.958;2023-03-14T14:08:44;5.7;;;1.9;;
78079;SDS011;67298;51.322;5.958;2023-03-14T14:13:24;10.4;;;2.4;;
78079;SDS011;67298;51.322;5.958;2023-03-14T14:18:07;6.9;;;2.5;;
78079;SDS011;67298;51.322;5.958;2023-03-14T14:22:48;6.4;;;2.5;;
78079;SDS011;67298;51.322;5.958;2023-03-14T14:27:28;6.9;;;3.0;;
78079;SDS011;67298;51.322;5.958;2023-03-14T14:32:08;5.2;;;2.1;;
78079;SDS011;67298;51.322;5.958;2023-03-14T14:36:52;7.0;;;2.1;;
78079;SDS011;67298;51.322;5.958;2023-03-14T14:41:32;5.5;;;2.2;;
78079;SDS011;67298;51.322;5.958;2023-03-14T14:46:12;6.2;;;2.1;;
78079;SDS011;67298;51.322;5.958;2023-03-14T14:50:53;2.0;;;1.4;;
78079;SDS011;67298;51.322;5.958;2023-03-14T14:55:36;6.5;;;2.2;;
78079;SDS011;67298;51.322;5.958;2023-03-14T15:00:16;4.6;;;2.3;;
78079;SDS011;67298;51.322;5.958;2023-03-14T15:04:57;9.5;;;1.6;;
78079;SDS011;67298;51.322;5.958;2023-03-14T15:09:37;6.9;;;3.1;;
78079;SDS011;67298;51.322;5.958;2023-03-14T15:14:20;3.1;;;2.0;;
78079;SDS011;67298;51.322;5.958;2023-03-14T15:19:02;5.4;;;2.0;;
78079;SDS011;67298;51.322;5.958;2023-03-14T15:23:42;5.4;;;2.2;;
78079;SDS011;67298;51.322;5.958;2023-03-14T15:28:22;7.6;;;3.0;;
78079;SDS011;67298;51.322;5.958;2023-03-14T15:33:03;5.2;;;2.5;;
78079;SDS011;67298;51.322;5.958;2023-03-14T15:37:45;4.1;;;1.6;;
78079;SDS011;67298;51.322;5.958;2023-03-14T15:42:25;4.9;;;2.4;;
78079;SDS011;67298;51.322;5.958;2023-03-14T15:47:05;6.0;;;2.1;;
78079;SDS011;67298;51.322;5.958;2023-03-14T15:51:46;3.4;;;1.6;;
78079;SDS011;67298;51.322;5.958;2023-03-14T15:56:33;6.2;;;2.0;;
78079;SDS011;67298;51.322;5.958;2023-03-14T16:01:13;4.9;;;2.2;;
78079;SDS011;67298;51.322;5.958;2023-03-14T16:05:55;4.2;;;1.3;;
78079;SDS011;67298;51.322;5.958;2023-03-14T16:10:36;5.2;;;1.4;;
78079;SDS011;67298;51.322;5.958;2023-03-14T16:15:16;3.9;;;1.7;;
78079;SDS011;67298;51.322;5.958;2023-03-14T16:19:56;3.5;;;1.6;;
78079;SDS011;67298;51.322;5.958;2023-03-14T16:24:36;2.0;;;1.4;;
78079;SDS011;67298;51.322;5.958;2023-03-14T16:29:16;2.9;;;1.4;;
78079;SDS011;67298;51.322;5.958;2023-03-14T16:33:56;4.9;;;1.6;;
78079;SDS011;67298;51.322;5.958;2023-03-14T16:38:36;5.3;;;1.6;;
78079;SDS011;67298;51.322;5.958;2023-03-14T16:43:16;1.4;;;0.7;;
78079;SDS011;67298;51.322;5.958;2023-03-14T16:47:56;4.4;;;1.5;;
78079;SDS011;67298;51.322;5.958;2023-03-14T16:52:36;8.0;;;1.6;;
78079;SDS011;67298;51.322;5.958;2023-03-14T16:57:16;6.8;;;2.0;;
78079;SDS011;67298;51.322;5.958;2023-03-14T17:01:56;2.8;;;1.5;;
78079;SDS011;67298;51.322;5.958;2023-03-14T17:06:36;4.4;;;1.1;;
78079;SDS011;67298;51.322;5.958;2023-03-14T17:11:16;5.2;;;1.3;;
78079;SDS011;67298;51.322;5.958;2023-03-14T17:15:56;3.8;;;1.0;;
78079;SDS011;67298;51.322;5.958;2023-03-14T17:20:37;3.3;;;1.3;;
78079;SDS011;67298;51.322;5.958;2023-03-14T17:25:23;2.0;;;1.0;;
78079;SDS011;67298;51.322;5.958;2023-03-14T17:30:03;2.6;;;0.9;;
78079;SDS011;67298;51.322;5.958;2023-03-14T17:34:44;3.6;;;1.1;;
78079;SDS011;67298;51.322;5.958;2023-03-14T17:39:24;4.8;;;1.6;;
78079;SDS011;67298;51.322;5.958;2023-03-14T17:44:04;2.2;;;1.3;;
78079;SDS011;67298;51.322;5.958;2023-03-14T17:48:44;2.9;;;1.6;;
78079;SDS011;67298;51.322;5.958;2023-03-14T17:53:24;1.5;;;0.9;;
78079;SDS011;67298;51.322;5.958;2023-03-14T17:58:04;3.2;;;1.3;;
78079;SDS011;67298;51.322;5.958;2023-03-14T18:02:44;1.2;;;0.7;;
78079;SDS011;67298;51.322;5.958;2023-03-14T18:07:24;0.9;;;0.7;;
78079;SDS011;67298;51.322;5.958;2023-03-14T18:12:04;2.6;;;1.0;;
78079;SDS011;67298;51.322;5.958;2023-03-14T18:16:44;4.1;;;1.1;;
78079;SDS011;67298;51.322;5.958;2023-03-14T18:21:24;2.5;;;1.1;;
78079;SDS011;67298;51.322;5.958;2023-03-14T18:26:04;1.8;;;0.8;;
78079;SDS011;67298;51.322;5.958;2023-03-14T18:30:44;2.2;;;0.5;;
78079;SDS011;67298;51.322;5.958;2023-03-14T18:35:33;2.3;;;0.8;;
78079;SDS011;67298;51.322;5.958;2023-03-14T18:40:14;3.3;;;0.7;;
78079;SDS011;67298;51.322;5.958;2023-03-14T18:44:54;6.0;;;1.0;;
78079;SDS011;67298;51.322;5.958;2023-03-14T18:49:34;3.8;;;0.7;;
78079;SDS011;67298;51.322;5.958;2023-03-14T18:54:14;1.1;;;0.6;;
78079;SDS011;67298;51.322;5.958;2023-03-14T18:58:54;2.7;;;0.7;;
78079;SDS011;67298;51.322;5.958;2023-03-14T19:03:34;2.4;;;0.4;;
78079;SDS011;67298;51.322;5.958;2023-03-14T19:08:14;0.9;;;0.4;;
78079;SDS011;67298;51.322;5.958;2023-03-14T19:12:54;1.5;;;0.6;;
78079;SDS011;67298;51.322;5.958;2023-03-14T19:17:34;2.1;;;0.7;;
78079;SDS011;67298;51.322;5.958;2023-03-14T19:22:14;0.1;;;0.1;;
78079;SDS011;67298;51.322;5.958;2023-03-14T19:26:54;2.7;;;0.9;;
78079;SDS011;67298;51.322;5.958;2023-03-14T19:31:33;0.4;;;0.4;;
78079;SDS011;67298;51.322;5.958;2023-03-14T19:36:14;1.3;;;0.5;;
78079;SDS011;67298;51.322;5.958;2023-03-14T19:40:54;1.7;;;0.4;;
78079;SDS011;67298;51.322;5.958;2023-03-14T19:45:37;0.8;;;0.7;;
78079;SDS011;67298;51.322;5.958;2023-03-14T19:50:17;4.0;;;0.6;;
78079;SDS011;67298;51.322;5.958;2023-03-14T19:54:57;1.6;;;0.4;;
78079;SDS011;67298;51.322;5.958;2023-03-14T19:59:37;1.4;;;0.6;;
78079;SDS011;67298;51.322;5.958;2023-03-14T20:04:17;2.1;;;0.7;;
78079;SDS011;67298;51.322;5.958;2023-03-14T20:08:57;1.4;;;0.7;;
78079;SDS011;67298;51.322;5.958;2023-03-14T20:13:37;3.3;;;0.7;;
78079;SDS011;67298;51.322;5.958;2023-03-14T20:18:17;0.8;;;0.8;;
78079;SDS011;67298;51.322;5.958;2023-03-14T20:22:57;0.7;;;0.5;;
78079;SDS011;67298;51.322;5.958;2023-03-14T20:27:37;1.6;;;1.0;;
78079;SDS011;67298;51.322;5.958;2023-03-14T20:32:17;2.9;;;0.6;;
78079;SDS011;67298;51.322;5.958;2023-03-14T20:36:57;1.6;;;0.6;;
78079;SDS011;67298;51.322;5.958;2023-03-14T20:41:37;1.5;;;0.6;;
78079;SDS011;67298;51.322;5.958;2023-03-14T20:46:17;0.3;;;0.3;;
78079;SDS011;67298;51.322;5.958;2023-03-14T20:50:57;0.8;;;0.5;;
78079;SDS011;67298;51.322;5.958;2023-03-14T20:55:37;2.9;;;0.8;;
78079;SDS011;67298;51.322;5.958;2023-03-14T21:00:17;2.2;;;0.7;;
78079;SDS011;67298;51.322;5.958;2023-03-14T21:04:57;2.1;;;0.8;;
78079;SDS011;67298;51.322;5.958;2023-03-14T21:09:37;0.5;;;0.4;;
78079;SDS011;67298;51.322;5.958;2023-03-14T21:14:17;2.0;;;0.5;;
78079;SDS011;67298;51.322;5.958;2023-03-14T21:18:57;2.8;;;0.6;;
78079;SDS011;67298;51.322;5.958;2023-03-14T21:23:37;0.9;;;0.8;;
78079;SDS011;67298;51.322;5.958;2023-03-14T21:28:17;1.7;;;0.7;;
78079;SDS011;67298;51.322;5.958;2023-03-14T21:32:57;2.4;;;0.7;;
78079;SDS011;67298;51.322;5.958;2023-03-14T21:37:37;3.1;;;0.8;;
78079;SDS011;67298;51.322;5.958;2023-03-14T21:42:17;3.4;;;0.6;;
78079;SDS011;67298;51.322;5.958;2023-03-14T21:46:57;0.5;;;0.5;;
78079;SDS011;67298;51.322;5.958;2023-03-14T21:51:37;3.2;;;0.7;;
78079;SDS011;67298;51.322;5.958;2023-03-14T21:56:17;1.7;;;0.7;;
78079;SDS011;67298;51.322;5.958;2023-03-14T22:00:57;0.2;;;0.2;;
78079;SDS011;67298;51.322;5.958;2023-03-14T22:05:37;2.3;;;0.7;;
78079;SDS011;67298;51.322;5.958;2023-03-14T22:10:18;3.8;;;0.6;;
78079;SDS011;67298;51.322;5.958;2023-03-14T22:14:58;2.5;;;0.7;;
78079;SDS011;67298;51.322;5.958;2023-03-14T22:19:38;2.2;;;0.8;;
78079;SDS011;67298;51.322;5.958;2023-03-14T22:24:18;0.6;;;0.5;;
78079;SDS011;67298;51.322;5.958;2023-03-14T22:28:58;2.3;;;0.7;;
78079;SDS011;67298;51.322;5.958;2023-03-14T22:33:38;1.3;;;0.6;;
78079;SDS011;67298;51.322;5.958;2023-03-14T22:38:18;1.8;;;0.8;;
78079;SDS011;67298;51.322;5.958;2023-03-14T22:42:58;1.4;;;0.7;;
78079;SDS011;67298;51.322;5.958;2023-03-14T22:47:38;0.7;;;0.7;;
78079;SDS011;67298;51.322;5.958;2023-03-14T22:52:18;1.5;;;0.9;;
78079;SDS011;67298;51.322;5.958;2023-03-14T22:56:58;3.8;;;0.9;;
78079;SDS011;67298;51.322;5.958;2023-03-14T23:01:38;0.4;;;0.4;;
78079;SDS011;67298;51.322;5.958;2023-03-14T23:06:18;2.3;;;0.9;;
78079;SDS011;67298;51.322;5.958;2023-03-14T23:10:58;2.1;;;0.5;;
78079;SDS011;67298;51.322;5.958;2023-03-14T23:15:39;3.1;;;0.7;;
78079;SDS011;67298;51.322;5.958;2023-03-14T23:20:19;1.4;;;0.7;;
78079;SDS011;67298;51.322;5.958;2023-03-14T23:24:59;0.5;;;0.5;;
78079;SDS011;67298;51.322;5.958;2023-03-14T23:29:39;2.9;;;0.9;;
78079;SDS011;67298;51.322;5.958;2023-03-14T23:34:20;0.9;;;0.6;;
78079;SDS011;67298;51.322;5.958;2023-03-14T23:39:00;1.9;;;0.8;;
78079;SDS011;67298;51.322;5.958;2023-03-14T23:43:40;1.6;;;1.1;;
78079;SDS011;67298;51.322;5.958;2023-03-14T23:48:20;2.6;;;0.9;;
78079;SDS011;67298;51.322;5.958;2023-03-14T23:53:00;1.5;;;0.8;;
78079;SDS011;67298;51.322;5.958;2023-03-14T23:57:40;3.7;;;1.4;;
